Time;durP1;ratioP1;P1;durP2;ratioP2;P2;SDS_P1;SDS_P2;PMS_P1;PMS_P2;Temp;Humidity;BMP_temperature;BMP_pressure;BME280_temperature;BME280_humidity;BME280_pressure;Samples;Min_cycle;Max_cycle;Signal;HPM_P1;HPM_P2
2021/10/31 00:00:02;;;;;;;16.17;10.90;;;;;;;9.75;72.38;99547.25;4951455;29;20055;-64
2021/10/31 00:02:49;;;;;;;20.50;11.07;;;;;;;9.76;72.44;99556.13;4949419;28;20057;-64
2021/10/31 00:05:34;;;;;;;21.80;12.50;;;;;;;9.70;72.63;99554.91;4951075;29;20061;-64
2021/10/31 00:08:19;;;;;;;19.70;11.60;;;;;;;9.83;71.72;99559.88;4952279;29;20055;-61
2021/10/31 00:11:06;;;;;;;21.15;12.35;;;;;;;9.91;71.60;99562.59;4950858;28;20050;-64
2021/10/31 00:13:51;;;;;;;23.92;12.63;;;;;;;10.05;71.13;99570.06;4952603;29;20078;-64
2021/10/31 00:16:36;;;;;;;20.83;11.80;;;;;;;9.98;71.44;99566.34;4950282;29;20081;-64
2021/10/31 00:19:22;;;;;;;21.63;13.38;;;;;;;10.03;71.33;99564.03;4951096;29;20053;-66
2021/10/31 00:22:08;;;;;;;24.35;12.77;;;;;;;9.83;71.63;99563.41;4952365;28;20129;-63
2021/10/31 00:24:53;;;;;;;19.00;11.70;;;;;;;9.67;72.55;99566.78;4951816;29;20058;-64
2021/10/31 00:27:38;;;;;;;21.65;12.85;;;;;;;9.70;72.83;99567.47;4951297;29;20103;-64
2021/10/31 00:30:23;;;;;;;23.02;13.43;;;;;;;9.58;73.14;99570.38;4953108;29;20066;-63
2021/10/31 00:33:08;;;;;;;23.92;12.70;;;;;;;9.32;74.70;99569.47;4951582;28;20070;-61
2021/10/31 00:35:54;;;;;;;20.42;12.38;;;;;;;9.21;75.70;99569.69;4950235;29;20520;-61
2021/10/31 00:38:40;;;;;;;23.52;13.18;;;;;;;9.28;75.27;99576.13;4950391;29;20058;-61
2021/10/31 00:41:25;;;;;;;26.33;13.70;;;;;;;9.37;75.19;99583.25;4950924;29;20110;-62
2021/10/31 00:44:10;;;;;;;26.67;14.02;;;;;;;9.34;75.69;99578.19;4951517;29;20075;-62
2021/10/31 00:46:55;;;;;;;26.13;12.75;;;;;;;9.27;76.28;99577.13;4948822;29;20437;-63
2021/10/31 00:49:40;;;;;;;24.60;12.68;;;;;;;9.41;75.57;99578.44;4952169;29;20444;-64
2021/10/31 00:52:28;;;;;;;25.92;12.00;;;;;;;9.41;75.93;99584.63;4951804;28;20149;-61
2021/10/31 00:55:14;;;;;;;19.83;12.32;;;;;;;9.51;75.64;99593.44;4951383;29;20058;-64
2021/10/31 00:58:00;;;;;;;22.55;12.10;;;;;;;9.44;76.37;99595.03;4950364;29;20098;-64
2021/10/31 01:00:47;;;;;;;22.83;12.67;;;;;;;9.37;76.80;99588.63;4951925;29;20421;-62
2021/10/31 01:03:32;;;;;;;22.00;11.40;;;;;;;9.21;77.92;99599.97;4945892;29;20114;-61
2021/10/31 01:06:40;;;;;;;20.80;12.03;;;;;;;9.14;77.94;99601.59;4948948;29;20070;-62
2021/10/31 01:09:36;;;;;;;25.05;12.27;;;;;;;9.05;78.33;99603.31;4952208;29;20673;-64
2021/10/31 01:12:42;;;;;;;19.88;11.27;;;;;;;9.01;78.73;99606.47;4950904;28;20101;-64
2021/10/31 01:15:35;;;;;;;21.23;11.02;;;;;;;9.03;78.58;99602.63;4951538;28;20062;-64
2021/10/31 01:18:56;;;;;;;21.20;11.57;;;;;;;9.08;78.36;99607.53;4955069;29;20062;-65
2021/10/31 01:21:50;;;;;;;17.88;10.88;;;;;;;9.18;77.66;99615.50;4932762;28;20063;-62
2021/10/31 01:24:56;;;;;;;17.83;10.75;;;;;;;9.02;78.59;99609.00;4954538;29;20110;-61
2021/10/31 01:27:56;;;;;;;20.02;10.32;;;;;;;8.99;78.71;99617.28;4954511;29;20074;-58
2021/10/31 01:30:51;;;;;;;18.92;10.90;;;;;;;8.95;79.01;99610.56;4954887;29;20106;-62
2021/10/31 01:33:48;;;;;;;16.60;10.68;;;;;;;9.15;78.26;99616.66;4953235;29;20062;-62
2021/10/31 01:36:44;;;;;;;19.75;11.07;;;;;;;9.14;77.98;99609.63;4954139;29;20110;-63
2021/10/31 01:39:37;;;;;;;22.08;11.70;;;;;;;9.09;78.37;99618.09;4954810;29;20565;-63
2021/10/31 01:42:28;;;;;;;19.33;12.15;;;;;;;9.17;78.14;99619.19;4952785;28;20062;-65
2021/10/31 01:45:18;;;;;;;17.83;10.80;;;;;;;9.14;78.49;99617.66;4948794;29;20580;-64
2021/10/31 01:48:07;;;;;;;20.27;10.95;;;;;;;8.97;79.01;99623.78;4953728;29;20058;-63
2021/10/31 01:50:57;;;;;;;20.63;11.10;;;;;;;8.93;79.33;99617.91;4954693;28;20182;-64
2021/10/31 01:53:52;;;;;;;18.35;11.52;;;;;;;9.21;77.88;99621.41;4954887;29;20062;-63
2021/10/31 01:56:42;;;;;;;18.83;11.10;;;;;;;9.25;77.48;99624.63;4953397;29;20058;-64
2021/10/31 01:59:34;;;;;;;20.40;11.20;;;;;;;9.13;78.33;99624.00;4953967;29;20132;-63
2021/10/31 02:02:20;;;;;;;16.70;10.85;;;;;;;9.10;78.48;99624.28;4953736;29;20133;-62
2021/10/31 02:05:08;;;;;;;19.48;11.60;;;;;;;9.09;78.40;99627.97;4953065;29;20137;-63
2021/10/31 02:07:57;;;;;;;18.27;11.40;;;;;;;9.01;79.29;99625.19;4954463;29;20074;-62
2021/10/31 02:10:46;;;;;;;18.60;11.43;;;;;;;9.12;78.72;99621.47;4953010;29;20346;-66
2021/10/31 02:13:32;;;;;;;18.15;11.00;;;;;;;9.30;78.13;99622.34;4954654;29;20163;-65
2021/10/31 02:16:19;;;;;;;;;;;;;;;9.24;78.48;99631.00;4953918;29;20421;-64
2021/10/31 02:19:09;;;;;;;16.67;10.23;;;;;;;9.31;78.21;99629.38;4953533;29;19929;-65
2021/10/31 02:21:58;;;;;;;18.40;10.70;;;;;;;9.34;77.98;99618.34;4953789;29;20054;-64
2021/10/31 02:24:46;;;;;;;16.77;9.95;;;;;;;9.19;78.86;99614.53;4950422;29;20190;-63
2021/10/31 02:27:32;;;;;;;17.45;10.20;;;;;;;9.21;78.75;99621.41;4949627;29;20102;-65
2021/10/31 02:30:18;;;;;;;16.60;9.80;;;;;;;9.12;79.32;99621.47;4953701;29;20054;-63
2021/10/31 02:33:03;;;;;;;16.55;9.35;;;;;;;9.24;78.84;99621.13;4953195;28;20070;-63
2021/10/31 02:35:49;;;;;;;17.17;9.77;;;;;;;9.18;79.47;99629.75;4952209;29;20539;-64
2021/10/31 02:38:33;;;;;;;19.17;10.88;;;;;;;9.05;80.13;99638.13;4954394;29;20265;-64
2021/10/31 02:41:20;;;;;;;20.42;11.10;;;;;;;9.16;79.72;99638.91;4953939;28;20082;-63
2021/10/31 02:44:06;;;;;;;17.42;10.63;;;;;;;9.04;80.52;99636.44;4952598;29;20425;-64
2021/10/31 02:46:51;;;;;;;17.08;11.07;;;;;;;8.90;81.07;99644.13;4948754;29;20074;-63
2021/10/31 02:49:37;;;;;;;18.08;9.90;;;;;;;8.90;81.13;99647.66;4954009;29;20050;-61
2021/10/31 02:52:30;;;;;;;16.30;10.40;;;;;;;8.88;81.08;99648.75;4953617;28;20129;-62
2021/10/31 02:55:21;;;;;;;16.50;9.93;;;;;;;8.75;81.90;99649.09;4953193;29;20054;-64
2021/10/31 02:58:14;;;;;;;17.52;10.05;;;;;;;8.99;80.68;99643.22;4948170;29;20516;-62
2021/10/31 03:01:03;;;;;;;16.08;10.13;;;;;;;8.97;80.71;99640.69;4952255;28;20429;-63
2021/10/31 03:03:52;;;;;;;18.85;10.43;;;;;;;9.05;80.46;99651.50;4952962;29;20518;-63
2021/10/31 03:06:37;;;;;;;18.15;10.18;;;;;;;8.95;81.22;99658.75;4948766;29;20202;-64
2021/10/31 03:09:22;;;;;;;15.50;9.73;;;;;;;9.09;80.60;99652.03;4951540;29;20163;-63
2021/10/31 03:12:10;;;;;;;15.30;9.45;;;;;;;9.04;80.61;99665.06;4951819;28;20533;-64
2021/10/31 03:14:56;;;;;;;16.83;9.48;;;;;;;9.01;81.42;99668.03;4949842;29;20121;-63
2021/10/31 03:17:41;;;;;;;16.98;9.00;;;;;;;8.98;81.51;99671.81;4946213;29;20057;-64
2021/10/31 03:20:26;;;;;;;19.98;9.80;;;;;;;9.08;81.08;99680.66;4952453;29;20070;-63
2021/10/31 03:23:13;;;;;;;15.35;9.45;;;;;;;9.28;80.60;99681.41;4952468;28;20079;-63
2021/10/31 03:25:57;;;;;;;16.23;9.75;;;;;;;9.35;80.72;99670.91;4951575;29;20062;-63
2021/10/31 03:28:43;;;;;;;17.40;9.43;;;;;;;9.41;80.16;99680.19;4952048;29;20050;-61
2021/10/31 03:31:29;;;;;;;14.35;8.85;;;;;;;9.62;79.59;99680.78;4953313;28;20155;-64
2021/10/31 03:34:14;;;;;;;16.52;9.15;;;;;;;9.48;80.02;99682.16;4951668;29;20062;-63
2021/10/31 03:36:59;;;;;;;18.97;10.67;;;;;;;9.37;80.77;99679.66;4952276;28;20066;-63
2021/10/31 03:39:44;;;;;;;15.02;9.50;;;;;;;9.35;80.90;99674.47;4951825;29;20058;-63
2021/10/31 03:42:29;;;;;;;13.95;9.20;;;;;;;9.29;80.91;99674.22;4951985;28;20133;-62
2021/10/31 03:45:14;;;;;;;17.65;9.52;;;;;;;9.23;81.81;99670.28;4951149;29;20436;-62
2021/10/31 03:48:03;;;;;;;14.30;9.23;;;;;;;9.30;81.17;99678.56;4952305;29;20069;-62
2021/10/31 03:50:48;;;;;;;16.58;9.80;;;;;;;9.20;82.11;99677.78;4953388;29;20513;-61
2021/10/31 03:53:33;;;;;;;15.57;9.60;;;;;;;9.40;81.06;99687.41;4951040;29;20067;-64
2021/10/31 03:56:18;;;;;;;14.90;9.27;;;;;;;9.25;81.86;99686.22;4951353;29;20313;-65
2021/10/31 03:59:04;;;;;;;15.73;9.35;;;;;;;9.19;81.88;99694.84;4951966;29;20055;-63
2021/10/31 04:01:49;;;;;;;16.13;8.73;;;;;;;9.26;81.97;99703.97;4950538;28;20062;-64
2021/10/31 04:04:35;;;;;;;15.85;8.63;;;;;;;9.30;81.84;99700.84;4952770;29;20066;-63
2021/10/31 04:07:20;;;;;;;18.30;10.13;;;;;;;9.38;82.02;99697.44;4951808;29;20065;-63
2021/10/31 04:10:06;;;;;;;14.77;8.77;;;;;;;9.42;81.94;99697.97;4952179;29;20055;-63
2021/10/31 04:12:51;;;;;;;17.92;9.18;;;;;;;9.33;82.34;99699.69;4952862;28;20105;-64
2021/10/31 04:15:37;;;;;;;14.23;8.68;;;;;;;9.23;82.63;99698.91;4945942;29;20102;-63
2021/10/31 04:18:23;;;;;;;15.98;8.75;;;;;;;9.26;82.58;99699.47;4951531;29;20106;-65
2021/10/31 04:21:09;;;;;;;14.52;8.00;;;;;;;9.18;83.28;99706.53;4952570;28;20061;-62
2021/10/31 04:23:55;;;;;;;14.27;8.45;;;;;;;9.17;82.92;99715.56;4951562;29;20167;-63
2021/10/31 04:26:40;;;;;;;16.23;9.40;;;;;;;9.04;83.98;99716.75;4948550;29;20524;-63
2021/10/31 04:29:25;;;;;;;14.50;8.70;;;;;;;9.09;83.42;99714.47;4947180;29;20062;-61
2021/10/31 04:32:10;;;;;;;13.30;8.10;;;;;;;9.11;83.59;99711.63;4951886;28;20110;-64
2021/10/31 04:34:55;;;;;;;16.17;8.68;;;;;;;9.15;83.24;99714.88;4950127;29;20063;-67
2021/10/31 04:37:44;;;;;;;16.73;8.55;;;;;;;9.06;83.42;99717.44;4951148;29;20137;-64
2021/10/31 04:40:32;;;;;;;15.85;8.77;;;;;;;8.94;84.40;99709.75;4944227;29;20078;-65
2021/10/31 04:43:18;;;;;;;17.20;9.00;;;;;;;9.04;83.96;99713.22;4951821;29;20054;-64
2021/10/31 04:46:03;;;;;;;13.95;8.18;;;;;;;8.96;84.13;99708.59;4948417;29;20058;-63
2021/10/31 04:48:48;;;;;;;14.32;8.43;;;;;;;8.84;84.49;99715.13;4944203;28;20174;-64
2021/10/31 04:51:34;;;;;;;14.90;8.15;;;;;;;8.84;85.22;99711.59;4948371;28;20066;-64
2021/10/31 04:54:20;;;;;;;15.48;8.80;;;;;;;8.85;85.30;99710.63;4951554;28;20061;-62
2021/10/31 04:57:06;;;;;;;14.85;8.02;;;;;;;8.74;85.58;99698.25;4956389;29;20125;-64
2021/10/31 04:59:51;;;;;;;15.05;7.90;;;;;;;8.63;86.20;99701.09;4955238;29;20361;-62
2021/10/31 05:02:36;;;;;;;14.05;8.15;;;;;;;8.55;86.48;99698.31;4954538;28;20106;-63
2021/10/31 05:05:21;;;;;;;14.60;7.95;;;;;;;8.59;86.69;99705.06;4941801;29;20082;-63
2021/10/31 05:08:07;;;;;;;13.57;7.83;;;;;;;8.52;86.48;99699.44;4954523;29;20054;-62
2021/10/31 05:10:53;;;;;;;15.23;7.85;;;;;;;8.48;86.99;99704.22;4949568;28;20712;-62
2021/10/31 05:13:39;;;;;;;15.73;8.88;;;;;;;8.42;87.50;99710.19;4952369;29;20545;-62
2021/10/31 05:16:24;;;;;;;;;;;;;;;8.42;87.35;99710.19;4953941;29;20053;-63
2021/10/31 05:19:10;;;;;;;13.07;8.52;;;;;;;8.38;87.65;99708.75;4954662;29;20400;-63
2021/10/31 05:21:55;;;;;;;17.00;8.73;;;;;;;8.48;87.58;99701.56;4954309;28;20178;-64
2021/10/31 05:24:40;;;;;;;13.60;8.30;;;;;;;8.50;87.41;99715.63;4954336;29;20134;-65
2021/10/31 05:27:26;;;;;;;13.32;8.50;;;;;;;8.49;87.63;99716.63;4954777;29;20130;-65
2021/10/31 05:30:13;;;;;;;18.55;8.93;;;;;;;8.44;87.51;99726.91;4954966;29;20054;-64
2021/10/31 05:32:58;;;;;;;14.63;8.70;;;;;;;8.54;87.37;99720.72;4954575;28;20098;-63
2021/10/31 05:35:43;;;;;;;17.97;8.60;;;;;;;8.58;86.56;99730.13;4953898;29;20062;-63
2021/10/31 05:38:28;;;;;;;14.50;8.35;;;;;;;8.75;86.08;99726.69;4952797;29;20952;-65
2021/10/31 05:41:14;;;;;;;16.90;8.67;;;;;;;8.68;86.39;99737.16;4953890;28;20126;-63
2021/10/31 05:44:00;;;;;;;16.43;9.13;;;;;;;8.63;87.17;99739.38;4953835;29;20065;-65
2021/10/31 05:46:45;;;;;;;13.98;8.20;;;;;;;8.66;87.15;99740.97;4953395;29;20130;-64
2021/10/31 05:49:30;;;;;;;16.08;9.05;;;;;;;8.66;86.84;99732.94;4953447;29;20512;-64
2021/10/31 05:52:16;;;;;;;13.45;8.23;;;;;;;8.63;87.48;99728.69;4952347;28;20090;-64
2021/10/31 05:55:01;;;;;;;15.38;9.13;;;;;;;8.66;87.24;99727.59;4949122;29;20141;-64
2021/10/31 05:57:47;;;;;;;14.70;8.63;;;;;;;8.74;87.07;99727.69;4951778;29;20145;-63
2021/10/31 06:00:33;;;;;;;15.90;7.63;;;;;;;8.68;87.02;99725.59;4949413;28;20061;-60
2021/10/31 06:03:19;;;;;;;17.80;8.57;;;;;;;8.79;86.81;99720.09;4953995;29;20218;-60
2021/10/31 06:06:04;;;;;;;15.18;8.02;;;;;;;8.76;86.46;99723.03;4953566;29;20279;-64
2021/10/31 06:08:50;;;;;;;13.50;8.17;;;;;;;8.79;86.27;99728.09;4953401;29;20062;-63
2021/10/31 06:11:35;;;;;;;17.45;9.65;;;;;;;8.75;87.19;99726.69;4954670;28;20834;-65
2021/10/31 06:14:20;;;;;;;13.45;8.40;;;;;;;8.77;86.94;99727.41;4952214;29;20070;-64
2021/10/31 06:17:07;;;;;;;14.88;9.02;;;;;;;8.77;87.22;99724.75;4949094;29;20428;-62
2021/10/31 06:19:52;;;;;;;13.27;8.70;;;;;;;8.72;87.41;99729.66;4954046;29;20102;-61
2021/10/31 06:22:37;;;;;;;14.63;9.27;;;;;;;8.65;87.85;99739.28;4953254;28;20191;-63
2021/10/31 06:25:22;;;;;;;16.67;8.20;;;;;;;8.65;88.04;99747.31;4953870;29;20062;-64
2021/10/31 06:28:07;;;;;;;13.57;7.70;;;;;;;8.64;88.24;99758.97;4953053;29;20098;-63
2021/10/31 06:30:52;;;;;;;15.73;8.63;;;;;;;8.69;87.70;99759.38;4953710;28;20804;-62
2021/10/31 06:33:38;;;;;;;12.23;7.68;;;;;;;8.74;87.45;99767.81;4952518;29;20062;-63
2021/10/31 06:36:23;;;;;;;15.10;8.18;;;;;;;8.75;87.34;99765.00;4952918;29;20062;-64
2021/10/31 06:39:08;;;;;;;15.00;8.45;;;;;;;8.81;87.31;99776.97;4953907;29;20075;-64
2021/10/31 06:41:54;;;;;;;15.13;7.37;;;;;;;8.92;87.01;99774.13;4953344;28;20058;-62
2021/10/31 06:44:38;;;;;;;13.73;8.38;;;;;;;9.06;86.70;99780.84;4951988;29;20062;-60
2021/10/31 06:47:24;;;;;;;12.57;7.43;;;;;;;9.13;86.27;99786.47;4953522;29;20082;-61
2021/10/31 06:50:10;;;;;;;12.70;7.68;;;;;;;9.26;85.52;99777.13;4953396;29;20046;-61
2021/10/31 06:52:55;;;;;;;14.98;7.45;;;;;;;9.37;85.05;99776.09;4952244;28;20106;-61
2021/10/31 06:55:40;;;;;;;15.25;7.93;;;;;;;9.53;84.61;99780.81;4948018;28;20065;-62
2021/10/31 06:58:25;;;;;;;13.93;8.27;;;;;;;9.63;84.16;99779.75;4951931;29;20070;-61
2021/10/31 07:01:11;;;;;;;13.02;7.82;;;;;;;9.74;83.87;99789.44;4951389;28;20066;-61
2021/10/31 07:03:56;;;;;;;14.13;7.85;;;;;;;9.92;83.22;99784.09;4945227;29;20171;-62
2021/10/31 07:06:43;;;;;;;13.52;7.82;;;;;;;10.08;82.93;99778.91;4949619;29;20054;-61
2021/10/31 07:09:28;;;;;;;;;;;;;;;10.24;81.97;99771.06;4951840;29;20057;-63
2021/10/31 07:12:13;;;;;;;11.80;6.57;;;;;;;10.44;81.36;99771.75;4951599;28;19929;-63
2021/10/31 07:14:59;;;;;;;14.95;8.57;;;;;;;10.64;80.96;99761.66;4946447;29;20053;-61
2021/10/31 07:17:45;;;;;;;13.18;7.68;;;;;;;10.81;80.17;99762.63;4952037;29;20082;-63
2021/10/31 07:20:30;;;;;;;13.27;7.72;;;;;;;11.04;79.60;99753.03;4950233;29;20057;-64
2021/10/31 07:23:16;;;;;;;11.97;7.30;;;;;;;11.31;78.50;99753.84;4951516;29;20062;-63
2021/10/31 07:26:01;;;;;;;;;;;;;;;11.36;78.61;99756.88;4947672;29;20066;-62
2021/10/31 07:28:46;;;;;;;15.05;8.02;;;;;;;11.47;77.82;99770.03;4946594;29;20308;-62
2021/10/31 07:31:36;;;;;;;13.43;7.30;;;;;;;11.45;78.49;99782.78;4951709;29;20058;-63
2021/10/31 07:34:26;;;;;;;14.52;8.68;;;;;;;11.41;78.19;99787.66;4951545;29;20389;-64
2021/10/31 07:37:11;;;;;;;16.73;8.73;;;;;;;11.59;77.82;99778.66;4950325;28;20067;-62
2021/10/31 07:39:58;;;;;;;19.70;9.43;;;;;;;11.55;77.60;99783.50;4948138;29;20102;-63
2021/10/31 07:42:43;;;;;;;15.90;9.15;;;;;;;11.73;76.73;99774.53;4951175;28;20062;-63
2021/10/31 07:45:29;;;;;;;20.73;11.20;;;;;;;11.66;77.33;99771.63;4948650;29;20066;-65
2021/10/31 07:48:14;;;;;;;18.40;8.93;;;;;;;12.00;76.80;99776.97;4951127;29;20525;-65
2021/10/31 07:51:00;;;;;;;14.18;7.82;;;;;;;11.98;75.89;99779.84;4939269;29;20146;-65
2021/10/31 07:53:44;;;;;;;13.32;8.48;;;;;;;12.20;75.74;99777.53;4951728;29;20178;-67
2021/10/31 07:56:34;;;;;;;14.82;8.52;;;;;;;12.24;75.42;99773.50;4951663;29;20065;-63
2021/10/31 07:59:19;;;;;;;15.85;10.00;;;;;;;12.07;76.22;99774.47;4950318;29;20640;-64
2021/10/31 08:02:05;;;;;;;12.90;7.78;;;;;;;12.38;75.78;99775.53;4948461;28;20059;-64
2021/10/31 08:04:50;;;;;;;15.05;8.15;;;;;;;12.62;75.24;99777.38;4949893;29;20074;-64
2021/10/31 08:07:34;;;;;;;13.50;8.05;;;;;;;12.75;75.27;99771.47;4950107;29;20141;-65
2021/10/31 08:10:20;;;;;;;11.52;7.57;;;;;;;12.86;74.53;99776.53;4945964;29;20055;-63
2021/10/31 08:13:06;;;;;;;11.90;7.07;;;;;;;12.89;74.36;99779.72;4943491;28;20058;-62
2021/10/31 08:15:52;;;;;;;13.02;7.60;;;;;;;12.88;74.62;99783.41;4949021;29;20062;-62
2021/10/31 08:18:37;;;;;;;14.45;8.57;;;;;;;12.97;74.62;99786.09;4952082;29;20078;-61
2021/10/31 08:21:25;;;;;;;15.00;8.48;;;;;;;12.98;74.33;99780.53;4943365;28;20529;-63
2021/10/31 08:24:10;;;;;;;12.77;7.05;;;;;;;13.06;74.57;99783.25;4948943;29;20054;-64
2021/10/31 08:26:55;;;;;;;14.10;8.47;;;;;;;13.11;73.95;99783.56;4951850;29;20055;-61
2021/10/31 08:29:42;;;;;;;12.52;7.80;;;;;;;13.25;73.97;99768.56;4942250;29;20091;-62
2021/10/31 08:32:28;;;;;;;12.95;7.70;;;;;;;13.46;73.25;99770.69;4945367;28;20071;-62
2021/10/31 08:35:13;;;;;;;12.27;7.22;;;;;;;13.66;72.68;99765.72;4942262;28;20057;-63
2021/10/31 08:37:58;;;;;;;12.88;7.93;;;;;;;13.68;72.23;99769.91;4947318;28;20127;-63
2021/10/31 08:40:44;;;;;;;10.82;7.07;;;;;;;13.85;72.33;99762.59;4949906;29;20050;-63
2021/10/31 08:43:29;;;;;;;13.98;7.88;;;;;;;13.89;72.56;99765.78;4950554;29;20186;-63
2021/10/31 08:46:17;;;;;;;12.57;7.00;;;;;;;14.02;72.55;99766.03;4951676;29;20171;-63
2021/10/31 08:49:04;;;;;;;12.75;6.65;;;;;;;14.15;72.23;99760.06;4947232;29;20117;-62
2021/10/31 08:51:48;;;;;;;;;;;;;;;14.37;71.74;99761.09;4951702;28;20442;-60
2021/10/31 08:54:35;;;;;;;12.05;6.95;;;;;;;14.62;70.83;99749.09;4950576;29;19929;-63
2021/10/31 08:57:20;;;;;;;11.20;6.22;;;;;;;14.95;69.41;99736.13;4950898;28;20434;-62
2021/10/31 09:00:06;;;;;;;14.45;7.07;;;;;;;14.96;70.52;99734.25;4944678;28;20182;-62
2021/10/31 09:02:53;;;;;;;11.88;7.10;;;;;;;15.14;68.98;99724.75;4947494;29;20206;-64
2021/10/31 09:05:38;;;;;;;11.55;7.45;;;;;;;15.41;68.84;99725.97;4950143;29;20417;-63
2021/10/31 09:08:23;;;;;;;12.47;7.50;;;;;;;15.28;68.36;99720.41;4950123;29;20062;-63
2021/10/31 09:11:08;;;;;;;10.33;7.13;;;;;;;15.37;68.27;99723.81;4948562;28;20361;-62
2021/10/31 09:13:54;;;;;;;11.10;6.88;;;;;;;15.25;69.10;99715.34;4949494;29;20162;-63
2021/10/31 09:16:39;;;;;;;11.35;7.03;;;;;;;15.26;69.29;99710.78;4950773;29;20054;-65
2021/10/31 09:19:25;;;;;;;10.57;6.75;;;;;;;15.36;68.47;99722.16;4950810;29;20513;-64
2021/10/31 09:22:11;;;;;;;11.70;7.32;;;;;;;15.49;69.04;99720.44;4945669;29;20063;-61
2021/10/31 09:24:56;;;;;;;11.52;7.15;;;;;;;15.31;69.29;99713.78;4950285;29;20426;-63
2021/10/31 09:27:41;;;;;;;10.45;6.38;;;;;;;15.53;68.71;99711.97;4950893;29;20122;-62
2021/10/31 09:30:27;;;;;;;11.23;7.63;;;;;;;15.41;68.17;99704.34;4951207;29;20059;-62
2021/10/31 09:33:14;;;;;;;12.25;7.60;;;;;;;15.22;68.74;99704.91;4946579;28;20061;-64
2021/10/31 09:36:01;;;;;;;12.80;7.97;;;;;;;15.50;68.27;99711.31;4944604;29;20050;-63
2021/10/31 09:38:46;;;;;;;12.25;7.68;;;;;;;15.92;67.04;99712.47;4946504;29;20110;-63
2021/10/31 09:41:31;;;;;;;11.85;7.40;;;;;;;15.80;66.71;99714.00;4947505;28;20054;-66
2021/10/31 09:44:20;;;;;;;11.93;6.63;;;;;;;16.13;65.76;99713.53;4943698;29;20070;-63
2021/10/31 09:47:05;;;;;;;11.98;7.63;;;;;;;15.93;66.68;99706.03;4946887;29;20194;-61
2021/10/31 09:49:50;;;;;;;11.25;7.53;;;;;;;15.91;66.87;99713.50;4950553;29;20528;-66
2021/10/31 09:52:36;;;;;;;11.00;7.45;;;;;;;16.16;65.95;99705.84;4948379;28;20139;-63
2021/10/31 09:55:22;;;;;;;12.02;7.03;;;;;;;16.43;65.91;99693.38;4947840;29;20190;-61
2021/10/31 09:58:15;;;;;;;10.02;5.95;;;;;;;16.71;63.96;99695.31;4946515;29;20058;-59
2021/10/31 10:01:06;;;;;;;10.85;6.13;;;;;;;16.83;64.63;99700.00;4943178;28;20054;-65
2021/10/31 10:03:54;;;;;;;8.93;6.80;;;;;;;16.77;63.65;99676.38;4951295;29;20049;-60
2021/10/31 10:06:50;;;;;;;10.55;6.97;;;;;;;16.58;65.21;99686.03;4948625;29;20053;-62
2021/10/31 10:09:38;;;;;;;9.63;5.75;;;;;;;16.99;63.79;99677.16;4945513;28;20634;-63
2021/10/31 10:12:25;;;;;;;11.18;7.00;;;;;;;17.05;65.27;99675.50;4946667;28;20058;-62
2021/10/31 10:15:12;;;;;;;12.32;6.13;;;;;;;16.94;64.07;99668.81;4948720;29;20183;-60
2021/10/31 10:17:57;;;;;;;10.38;6.82;;;;;;;16.82;63.99;99681.22;4951356;29;20473;-60
2021/10/31 10:20:43;;;;;;;11.45;6.97;;;;;;;17.04;63.69;99679.25;4949911;29;20078;-62
2021/10/31 10:23:28;;;;;;;10.15;6.38;;;;;;;17.04;63.84;99679.25;4948585;29;20066;-63
2021/10/31 10:26:22;;;;;;;9.50;6.00;;;;;;;16.85;63.98;99678.94;4942828;29;20062;-63
2021/10/31 10:29:13;;;;;;;13.10;6.75;;;;;;;16.90;63.84;99673.75;4945955;29;20419;-63
2021/10/31 10:32:00;;;;;;;9.63;6.75;;;;;;;16.86;63.79;99671.66;4950148;28;20532;-62
2021/10/31 10:34:51;;;;;;;11.25;7.45;;;;;;;16.48;65.08;99669.28;4942373;29;20886;-63
2021/10/31 10:37:37;;;;;;;10.73;6.55;;;;;;;16.38;65.49;99669.59;4942173;28;20174;-63
2021/10/31 10:40:24;;;;;;;12.13;6.28;;;;;;;16.17;66.20;99671.50;4949893;29;20061;-64
2021/10/31 10:43:10;;;;;;;8.85;6.20;;;;;;;16.16;66.42;99673.34;4951920;29;20059;-63
2021/10/31 10:46:10;;;;;;;10.65;6.85;;;;;;;16.13;66.90;99662.09;4944591;29;20146;-63
2021/10/31 10:48:55;;;;;;;13.20;6.85;;;;;;;15.94;66.37;99664.41;4944729;29;20101;-63
2021/10/31 10:51:40;;;;;;;10.98;6.75;;;;;;;16.15;66.26;99654.59;4944798;28;20054;-63
2021/10/31 10:54:25;;;;;;;10.30;6.30;;;;;;;16.42;66.10;99653.78;4947413;29;20610;-64
2021/10/31 10:57:11;;;;;;;11.18;6.47;;;;;;;16.56;65.77;99646.59;4948116;29;20112;-64
2021/10/31 10:59:59;;;;;;;13.10;7.00;;;;;;;16.44;65.17;99654.44;4945077;29;20062;-63
2021/10/31 11:02:45;;;;;;;11.38;6.82;;;;;;;16.66;64.43;99655.22;4950130;28;20051;-63
2021/10/31 11:05:32;;;;;;;9.15;6.80;;;;;;;16.66;64.18;99645.22;4937017;29;20051;-62
2021/10/31 11:08:19;;;;;;;9.50;6.85;;;;;;;16.77;64.79;99646.56;4943986;29;20139;-64
2021/10/31 11:11:10;;;;;;;10.30;7.30;;;;;;;16.84;63.72;99641.22;4943778;28;20050;-62
2021/10/31 11:13:57;;;;;;;9.63;7.10;;;;;;;16.91;63.54;99618.50;4937262;29;20157;-62
2021/10/31 11:16:44;;;;;;;11.13;7.88;;;;;;;16.89;63.29;99619.75;4947967;28;20355;-68
2021/10/31 11:19:29;;;;;;;9.55;6.57;;;;;;;16.93;63.64;99616.47;4947017;29;20133;-62
2021/10/31 11:22:14;;;;;;;9.95;7.07;;;;;;;16.91;62.87;99607.66;4951818;28;20121;-62
2021/10/31 11:25:00;;;;;;;10.00;5.63;;;;;;;17.11;63.18;99586.09;4947472;29;20058;-62
2021/10/31 11:27:47;;;;;;;11.82;6.57;;;;;;;17.18;62.58;99592.38;4945916;29;20168;-62
2021/10/31 11:30:34;;;;;;;8.32;5.30;;;;;;;17.16;62.93;99588.19;4947405;29;20066;-61
2021/10/31 11:33:20;;;;;;;11.27;6.93;;;;;;;16.89;63.34;99587.22;4940911;29;20267;-63
2021/10/31 11:36:06;;;;;;;10.02;7.00;;;;;;;16.95;62.87;99583.75;4949797;29;20512;-63
2021/10/31 11:38:51;;;;;;;9.13;6.22;;;;;;;16.99;62.94;99576.88;4943601;29;20656;-63
2021/10/31 11:41:38;;;;;;;9.25;6.50;;;;;;;16.97;62.89;99572.69;4947549;28;20062;-62
2021/10/31 11:44:29;;;;;;;9.18;6.00;;;;;;;17.26;61.97;99575.09;4947031;29;20494;-62
2021/10/31 11:47:21;;;;;;;12.18;6.35;;;;;;;17.21;61.96;99564.03;4948319;29;20234;-64
2021/10/31 11:50:11;;;;;;;8.98;6.38;;;;;;;17.30;62.43;99565.53;4942657;29;20057;-62
2021/10/31 11:52:59;;;;;;;8.48;5.35;;;;;;;17.34;61.91;99560.50;4947974;28;20054;-64
2021/10/31 11:56:01;;;;;;;12.95;6.22;;;;;;;17.44;61.73;99566.38;4947858;29;20137;-63
2021/10/31 11:58:59;;;;;;;8.20;5.65;;;;;;;17.41;61.76;99545.94;4947293;28;20177;-62
2021/10/31 12:01:49;;;;;;;7.38;5.45;;;;;;;17.41;62.19;99539.69;4947164;28;20529;-64
2021/10/31 12:07:43;;;;;;;8.90;5.45;;;;;;;17.52;61.81;99536.34;4950289;29;20538;-63
2021/10/31 12:10:30;;;;;;;11.40;5.68;;;;;;;17.42;61.50;99528.63;4948432;28;20090;-64
2021/10/31 12:13:16;;;;;;;10.68;6.55;;;;;;;17.25;61.24;99525.44;4946075;28;20056;-62
2021/10/31 12:16:03;;;;;;;10.85;7.07;;;;;;;17.39;60.78;99522.75;4940839;28;20058;-64
2021/10/31 12:18:50;;;;;;;13.05;8.30;;;;;;;17.27;60.78;99513.53;4948062;29;20051;-62
2021/10/31 12:21:37;;;;;;;13.25;7.95;;;;;;;16.92;61.77;99508.22;4941274;28;20058;-62
2021/10/31 12:24:35;;;;;;;10.82;8.32;;;;;;;16.73;62.21;99503.56;4942207;29;20524;-63
2021/10/31 12:27:22;;;;;;;15.38;8.30;;;;;;;16.71;63.61;99501.06;4947366;28;20062;-63
2021/10/31 12:30:41;;;;;;;17.48;8.40;;;;;;;16.92;62.56;99502.81;4946015;28;20090;-63
2021/10/31 12:33:27;;;;;;;12.90;8.55;;;;;;;16.93;61.76;99499.09;4939915;28;20513;-62
2021/10/31 12:36:29;;;;;;;12.75;7.68;;;;;;;16.94;62.13;99493.44;4941114;29;20053;-61
2021/10/31 12:39:48;;;;;;;11.05;6.88;;;;;;;17.02;62.54;99494.28;4947238;29;20078;-61
2021/10/31 12:42:34;;;;;;;13.68;8.52;;;;;;;17.05;61.57;99488.44;4948227;28;20054;-63
2021/10/31 12:45:25;;;;;;;13.15;7.97;;;;;;;17.01;61.84;99489.91;4950451;29;20573;-62
2021/10/31 12:48:12;;;;;;;12.75;8.38;;;;;;;17.02;62.03;99491.59;4948813;29;20051;-63
2021/10/31 12:50:58;;;;;;;12.77;8.43;;;;;;;17.00;62.14;99491.78;4946453;29;20549;-66
2021/10/31 12:53:44;;;;;;;12.20;8.05;;;;;;;16.93;62.32;99493.66;4950817;29;20541;-62
2021/10/31 12:56:31;;;;;;;12.45;7.45;;;;;;;17.12;62.10;99486.59;4947014;29;20194;-63
2021/10/31 12:59:17;;;;;;;10.25;7.03;;;;;;;16.86;62.92;99482.78;4947358;29;20501;-62
2021/10/31 13:02:07;;;;;;;11.35;7.05;;;;;;;17.14;62.55;99481.81;4950732;29;20222;-63
2021/10/31 13:04:55;;;;;;;12.30;5.93;;;;;;;17.21;62.67;99469.13;4946114;29;20074;-63